KRWI/RWI METAR and TAF weather

Enter ICAO airport designator
Station Type Date Time Source
KRWI METAR 2020/09/20 06:53 UTC NOAA

KRWI 200653Z AUTO 36009KT 10SM CLR 11/08 A3029 RMK AO2 SLP258 T01110078


Station Type Date Time Source
KRWI Decoded METAR 2020/09/20 06:53 UTC NOAA

ROCKY MOUNT-WILSON AIRPORT, NC, United States (KRWI) 35-51N 077-54W 47M
Sep 20, 2020 - 02:53 AM EDT / 2020.09.20 0653 UTC
Wind: from the N (360 degrees) at 10 MPH (9 KT):0
Visibility: 10 mile(s):0
Sky conditions: clear
Temperature: 52.0 F (11.1 C)
Dew Point: 46.0 F (7.8 C)
Relative Humidity: 80%
Pressure (altimeter): 30.29 in. Hg (1025 hPa)
ob: KRWI 200653Z AUTO 36009KT 10SM CLR 11/08 A3029 RMK AO2 SLP258 T01110078
cycle: 7

Station Type Date Time Source
KRWI TAF 2020/09/20 06:42 UTC NOAA

TAF KRWI 200540Z 2006/2106 02008KT P6SM BKN250
FM201400 03014G22KT P6SM SCT040 SCT250
TEMPO 2018/2022 BKN040
FM210000 06006KT P6SM SKC

Example: see airport list